createdAt,value
2022-12-06T00:01:35.401Z,91.41
2022-12-06T00:04:11.809Z,91.30
2022-12-06T00:06:48.208Z,91.12
2022-12-06T00:09:26.193Z,91.23
2022-12-06T00:11:54.995Z,90.91
2022-12-06T00:14:24.739Z,90.81
2022-12-06T00:16:53.085Z,91.14
2022-12-06T00:19:23.631Z,91.13
2022-12-06T00:21:52.143Z,91.23
2022-12-06T00:24:22.147Z,90.99
2022-12-06T00:26:51.609Z,91.18
2022-12-06T00:29:22.641Z,91.13
2022-12-06T00:31:51.392Z,91.24
2022-12-06T00:34:19.652Z,91.46
2022-12-06T00:36:48.905Z,91.75
2022-12-06T00:39:18.112Z,91.95
2022-12-06T00:41:46.783Z,91.64
2022-12-06T00:44:15.589Z,91.60
2022-12-06T00:46:43.759Z,91.69
2022-12-06T00:49:12.133Z,91.64
2022-12-06T00:51:40.929Z,91.66
2022-12-06T00:54:15.090Z,91.51
2022-12-06T00:56:43.453Z,91.23
2022-12-06T00:59:11.561Z,91.31
2022-12-06T01:01:39.915Z,91.39
2022-12-06T01:04:09.384Z,91.13
2022-12-06T01:06:38.114Z,90.99
2022-12-06T01:09:09.834Z,90.93
2022-12-06T01:11:40.660Z,90.83
2022-12-06T01:14:11.844Z,90.76
2022-12-06T01:16:42.032Z,90.66
2022-12-06T01:19:12.962Z,90.90
2022-12-06T01:21:41.211Z,90.89
2022-12-06T01:24:09.222Z,90.82
2022-12-06T01:26:37.438Z,90.51
2022-12-06T01:29:05.813Z,90.56
2022-12-06T01:31:38.561Z,90.33
2022-12-06T01:34:15.383Z,90.62
2022-12-06T01:36:44.938Z,90.49
2022-12-06T01:39:13.237Z,90.66
2022-12-06T01:41:42.268Z,90.73
2022-12-06T01:44:44.565Z,90.78
2022-12-06T01:47:25.326Z,90.69
2022-12-06T01:49:56.613Z,90.70
2022-12-06T01:52:30.918Z,90.55
2022-12-06T01:55:00.517Z,90.53
2022-12-06T01:57:29.962Z,90.74
2022-12-06T01:59:58.646Z,90.95
2022-12-06T02:03:30.699Z,90.97
2022-12-06T02:06:01.594Z,91.15
2022-12-06T02:08:30.435Z,91.21
2022-12-06T02:11:01.336Z,91.21
2022-12-06T02:13:32.204Z,91.36
2022-12-06T02:16:11.807Z,91.28
2022-12-06T02:18:54.962Z,91.20
2022-12-06T02:21:38.369Z,91.24
2022-12-06T02:24:44.386Z,91.02
2022-12-06T02:27:42.897Z,90.84
2022-12-06T02:30:18.877Z,90.71
2022-12-06T02:33:05.874Z,90.67
2022-12-06T02:35:50.721Z,90.76
2022-12-06T02:38:33.670Z,91.10
2022-12-06T02:41:11.880Z,91.06
2022-12-06T02:43:45.948Z,91.01
2022-12-06T02:46:17.683Z,90.77
2022-12-06T02:48:48.048Z,90.93
2022-12-06T02:51:18.240Z,90.75
2022-12-06T02:53:50.094Z,90.77
2022-12-06T02:56:20.024Z,90.79
2022-12-06T02:58:48.078Z,90.71
2022-12-06T03:01:20.733Z,90.80
2022-12-06T03:04:00.943Z,90.96
2022-12-06T03:06:50.732Z,91.17
2022-12-06T03:09:19.365Z,91.09
2022-12-06T03:12:15.373Z,91.09
2022-12-06T03:14:52.723Z,90.90
2022-12-06T03:17:37.306Z,90.77
2022-12-06T03:20:15.974Z,90.85
2022-12-06T03:22:50.903Z,90.86
2022-12-06T03:25:19.342Z,91.08
2022-12-06T03:27:49.746Z,90.87
2022-12-06T03:30:18.348Z,90.97
2022-12-06T03:32:50.321Z,91.14
2022-12-06T03:35:24.561Z,91.08
2022-12-06T03:37:58.965Z,91.19
2022-12-06T03:40:30.562Z,91.40
2022-12-06T03:43:00.202Z,91.34
2022-12-06T03:45:39.100Z,91.20
2022-12-06T03:48:13.346Z,91.29
2022-12-06T03:50:46.831Z,91.38
2022-12-06T03:53:17.990Z,91.11
2022-12-06T03:55:46.131Z,91.06
2022-12-06T03:58:14.471Z,90.99
2022-12-06T04:00:42.638Z,90.90
2022-12-06T04:03:10.892Z,90.76
2022-12-06T04:05:39.158Z,91.00
2022-12-06T04:08:07.561Z,91.06
2022-12-06T04:10:35.774Z,91.11
2022-12-06T04:13:05.979Z,90.79
2022-12-06T04:15:39.215Z,90.96
2022-12-06T04:18:11.726Z,91.10
2022-12-06T04:21:07.894Z,91.10
2022-12-06T04:23:38.774Z,91.48
2022-12-06T04:26:09.421Z,91.75
2022-12-06T04:28:56.137Z,91.80
2022-12-06T04:31:43.122Z,91.85
2022-12-06T04:34:30.204Z,91.84
2022-12-06T04:37:17.595Z,91.47
2022-12-06T04:39:46.554Z,91.74
2022-12-06T04:42:33.553Z,91.78
2022-12-06T04:45:02.538Z,91.68
2022-12-06T04:47:31.248Z,91.50
2022-12-06T04:49:59.500Z,91.25
2022-12-06T04:52:32.672Z,90.89
2022-12-06T04:55:05.374Z,91.05
2022-12-06T04:57:33.703Z,90.75
2022-12-06T05:00:01.901Z,90.66
2022-12-06T05:02:30.427Z,90.91
2022-12-06T05:04:58.942Z,90.98
2022-12-06T05:07:26.993Z,90.95
2022-12-06T05:09:55.206Z,90.68
2022-12-06T05:12:23.317Z,90.39
2022-12-06T05:14:51.328Z,90.69
2022-12-06T05:17:19.401Z,91.08
2022-12-06T05:19:47.562Z,91.20
2022-12-06T05:22:15.673Z,91.38
2022-12-06T05:24:43.982Z,91.50
2022-12-06T05:27:12.113Z,91.37
2022-12-06T05:29:40.547Z,91.05
2022-12-06T05:32:09.085Z,91.05
2022-12-06T05:34:37.363Z,90.95
2022-12-06T05:37:05.471Z,90.80
2022-12-06T05:39:33.618Z,90.69
2022-12-06T05:42:02.970Z,90.56
2022-12-06T05:44:30.980Z,91.02
2022-12-06T05:46:59.405Z,91.03
2022-12-06T05:49:28.546Z,91.04
2022-12-06T05:52:01.200Z,91.18
2022-12-06T05:54:32.009Z,91.06
2022-12-06T05:57:01.463Z,90.95
2022-12-06T05:59:30.246Z,90.78
2022-12-06T06:01:58.510Z,90.71
2022-12-06T06:04:26.676Z,90.72
2022-12-06T06:06:54.782Z,91.30
2022-12-06T06:09:23.981Z,91.58
2022-12-06T06:11:52.018Z,91.57
2022-12-06T06:14:20.620Z,91.57
2022-12-06T06:16:48.777Z,91.70
2022-12-06T06:19:16.939Z,91.43
2022-12-06T06:21:49.361Z,91.26
2022-12-06T06:24:17.814Z,91.61
2022-12-06T06:26:45.873Z,91.61
2022-12-06T06:29:14.149Z,91.60
2022-12-06T06:31:42.422Z,91.53
2022-12-06T06:34:10.580Z,91.49
2022-12-06T06:36:42.469Z,91.35
2022-12-06T06:39:14.076Z,91.40
2022-12-06T06:41:42.260Z,91.94
2022-12-06T06:44:10.736Z,92.08
2022-12-06T06:46:39.132Z,92.19
2022-12-06T06:49:07.206Z,92.11
2022-12-06T06:51:35.432Z,91.65
2022-12-06T06:54:03.771Z,91.32
2022-12-06T06:56:31.953Z,91.45
2022-12-06T06:59:00.765Z,91.68
2022-12-06T07:01:29.627Z,92.12
2022-12-06T07:03:57.867Z,91.94
2022-12-06T07:06:26.095Z,91.82
2022-12-06T07:08:54.166Z,91.77
2022-12-06T07:11:23.653Z,91.69
2022-12-06T07:13:52.895Z,91.77
2022-12-06T07:16:21.751Z,91.89
2022-12-06T07:18:50.442Z,92.30
2022-12-06T07:21:18.583Z,92.27
2022-12-06T07:23:46.895Z,92.20
2022-12-06T07:26:20.467Z,92.16
2022-12-06T07:28:50.693Z,92.38
2022-12-06T07:31:26.897Z,92.54
2022-12-06T07:33:57.704Z,92.73
2022-12-06T07:36:29.128Z,92.91
2022-12-06T07:38:58.916Z,92.93
2022-12-06T07:41:48.095Z,92.51
2022-12-06T07:45:03.380Z,92.44
2022-12-06T07:47:41.352Z,92.68
2022-12-06T07:50:21.855Z,92.67
2022-12-06T07:52:52.896Z,92.86
2022-12-06T07:55:21.406Z,92.53
2022-12-06T07:57:49.495Z,92.50
2022-12-06T08:00:20.455Z,92.56
2022-12-06T08:02:48.703Z,92.63
2022-12-06T08:05:17.012Z,92.32
2022-12-06T08:07:45.266Z,92.30
2022-12-06T08:10:13.825Z,92.03
2022-12-06T08:12:42.194Z,92.06
2022-12-06T08:15:13.364Z,91.99
2022-12-06T08:17:42.324Z,91.90
2022-12-06T08:20:13.897Z,91.95
2022-12-06T08:22:42.334Z,91.90
2022-12-06T08:25:10.598Z,92.03
2022-12-06T08:27:38.717Z,91.95
2022-12-06T08:30:07.875Z,91.58
2022-12-06T08:32:36.007Z,91.51
2022-12-06T08:35:04.297Z,91.48
2022-12-06T08:37:34.949Z,91.17
2022-12-06T08:40:03.702Z,91.27
2022-12-06T08:42:31.785Z,91.21
2022-12-06T08:45:00.088Z,90.86
2022-12-06T08:47:28.299Z,91.06
2022-12-06T08:49:58.815Z,90.66
2022-12-06T08:52:27.396Z,90.65
2022-12-06T08:54:55.583Z,90.62
2022-12-06T08:57:24.197Z,90.58
2022-12-06T08:59:52.441Z,90.65
2022-12-06T09:02:20.707Z,90.88
2022-12-06T09:04:51.768Z,91.25
2022-12-06T09:07:23.753Z,91.49
2022-12-06T09:09:54.647Z,91.49
2022-12-06T09:12:23.153Z,91.44
2022-12-06T09:14:51.488Z,91.36
2022-12-06T09:17:19.486Z,91.34
2022-12-06T09:19:48.063Z,91.32
2022-12-06T09:22:16.360Z,91.20
2022-12-06T09:24:44.525Z,91.39
2022-12-06T09:27:12.826Z,91.74
2022-12-06T09:29:41.153Z,91.84
2022-12-06T09:32:09.305Z,91.83
2022-12-06T09:34:38.149Z,91.92
2022-12-06T09:37:12.423Z,92.07
2022-12-06T09:39:47.313Z,91.82
2022-12-06T09:42:45.717Z,92.02
2022-12-06T09:45:32.805Z,92.14
2022-12-06T09:48:10.058Z,92.00
2022-12-06T09:50:44.399Z,92.02
2022-12-06T09:53:22.381Z,91.86
2022-12-06T09:56:09.227Z,91.91
2022-12-06T09:59:08.612Z,91.95
2022-12-06T10:02:02.724Z,92.04
2022-12-06T10:04:36.004Z,92.10
2022-12-06T10:07:10.876Z,92.41
2022-12-06T10:10:04.355Z,92.77
2022-12-06T10:12:52.759Z,92.81
2022-12-06T10:15:28.308Z,92.68
2022-12-06T10:18:44.602Z,92.47
2022-12-06T10:21:27.095Z,92.40
2022-12-06T10:24:16.908Z,92.52
2022-12-06T10:26:52.713Z,92.59
2022-12-06T10:29:34.201Z,93.00
2022-12-06T10:32:21.313Z,93.26
2022-12-06T10:34:56.511Z,93.57
2022-12-06T10:37:52.386Z,93.30
2022-12-06T10:40:30.731Z,93.02
2022-12-06T10:43:10.707Z,92.87
2022-12-06T10:46:09.180Z,92.55
2022-12-06T10:48:55.721Z,92.17
2022-12-06T10:51:47.527Z,92.55
2022-12-06T10:54:25.789Z,92.86
2022-12-06T10:56:57.260Z,93.03
2022-12-06T10:59:37.211Z,92.83
2022-12-06T11:02:27.169Z,92.36
2022-12-06T11:05:00.777Z,92.45
2022-12-06T11:07:37.791Z,92.53
2022-12-06T11:10:21.940Z,92.50
2022-12-06T11:12:58.286Z,92.48
2022-12-06T11:15:53.388Z,92.67
2022-12-06T11:18:23.718Z,93.03
2022-12-06T11:21:00.782Z,93.08
2022-12-06T11:23:53.283Z,92.70
2022-12-06T11:26:35.138Z,92.50
2022-12-06T11:29:07.164Z,92.67
2022-12-06T11:31:44.081Z,92.90
2022-12-06T11:34:22.768Z,93.13
2022-12-06T11:36:59.636Z,93.30
2022-12-06T11:39:31.031Z,93.35
2022-12-06T11:42:03.195Z,93.11
2022-12-06T11:44:47.914Z,93.41
2022-12-06T11:47:22.005Z,93.45
2022-12-06T11:49:55.757Z,93.03
2022-12-06T11:52:37.321Z,92.75
2022-12-06T11:55:21.872Z,92.89
2022-12-06T11:58:13.366Z,92.77
2022-12-06T12:01:03.241Z,93.12
2022-12-06T12:03:39.625Z,93.21
2022-12-06T12:06:26.434Z,93.22
2022-12-06T12:09:03.057Z,93.11
2022-12-06T12:11:34.424Z,93.03
2022-12-06T12:14:04.490Z,93.10
2022-12-06T12:16:32.840Z,93.01
2022-12-06T12:19:25.209Z,93.40
2022-12-06T12:21:56.797Z,93.36
2022-12-06T12:27:40.625Z,93.43
2022-12-06T12:30:28.963Z,93.63
2022-12-06T12:33:18.858Z,93.56
2022-12-06T12:35:50.683Z,93.18
2022-12-06T12:38:27.418Z,92.78
2022-12-06T12:41:03.311Z,92.97
2022-12-06T12:43:34.652Z,93.06
2022-12-06T12:46:12.179Z,93.26
2022-12-06T12:48:43.457Z,93.25
2022-12-06T12:51:28.775Z,93.28
2022-12-06T12:54:18.962Z,93.22
2022-12-06T12:56:47.929Z,93.09
2022-12-06T12:59:19.872Z,93.35
2022-12-06T13:02:01.318Z,93.48
2022-12-06T13:04:42.557Z,93.16
2022-12-06T13:07:11.664Z,93.09
2022-12-06T13:09:52.320Z,92.93
2022-12-06T13:12:34.779Z,92.73
2022-12-06T13:15:11.801Z,92.74
2022-12-06T13:17:44.302Z,92.99
2022-12-06T13:20:24.891Z,92.93
2022-12-06T13:22:57.311Z,92.48
2022-12-06T13:25:25.789Z,91.93
2022-12-06T13:28:03.705Z,92.08
2022-12-06T13:30:36.809Z,92.32
2022-12-06T13:33:27.400Z,92.36
2022-12-06T13:35:59.435Z,92.43
2022-12-06T13:38:33.241Z,92.62
2022-12-06T13:41:03.298Z,92.59
2022-12-06T13:43:36.400Z,92.55
2022-12-06T13:46:10.910Z,92.65
2022-12-06T13:48:51.730Z,92.67
2022-12-06T13:51:35.405Z,92.65
2022-12-06T13:54:03.694Z,92.48
2022-12-06T13:56:34.757Z,92.46
2022-12-06T13:59:05.350Z,92.31
2022-12-06T14:01:40.201Z,92.38
2022-12-06T14:07:03.135Z,92.08
2022-12-06T14:09:39.500Z,91.96
2022-12-06T14:12:23.574Z,92.04
2022-12-06T14:14:57.055Z,91.86
2022-12-06T14:18:00.653Z,91.79
2022-12-06T14:20:28.981Z,91.61
2022-12-06T14:22:57.895Z,91.47
2022-12-06T14:25:29.828Z,91.16
2022-12-06T14:28:12.906Z,91.41
2022-12-06T14:30:42.107Z,91.17
2022-12-06T14:33:23.497Z,90.93
2022-12-06T14:35:53.561Z,90.92
2022-12-06T14:38:22.999Z,90.88
2022-12-06T14:41:10.624Z,90.71
2022-12-06T14:43:40.150Z,90.40
2022-12-06T14:46:12.759Z,90.27
2022-12-06T14:48:59.554Z,90.78
2022-12-06T14:51:36.840Z,90.77
2022-12-06T14:54:31.382Z,90.65
2022-12-06T14:57:00.424Z,90.75
2022-12-06T15:00:10.778Z,90.83
2022-12-06T15:02:28.998Z,91.23
2022-12-06T15:04:59.324Z,91.12
2022-12-06T15:07:38.982Z,91.20
2022-12-06T15:10:32.658Z,91.22
2022-12-06T15:13:14.880Z,90.98
2022-12-06T15:15:47.473Z,91.12
2022-12-06T15:18:29.810Z,90.61
2022-12-06T15:20:58.126Z,90.75
2022-12-06T15:23:30.473Z,90.92
2022-12-06T15:25:58.884Z,90.82
2022-12-06T15:28:30.431Z,90.89
2022-12-06T15:30:59.207Z,90.74
2022-12-06T15:33:27.839Z,90.82
2022-12-06T15:35:58.295Z,90.85
2022-12-06T15:38:26.727Z,90.91
2022-12-06T15:40:56.257Z,90.83
2022-12-06T15:43:34.251Z,90.95
2022-12-06T15:46:04.062Z,90.46
2022-12-06T15:48:37.696Z,90.53
2022-12-06T15:51:10.437Z,90.67
2022-12-06T15:53:39.699Z,90.69
2022-12-06T15:56:14.858Z,90.75
2022-12-06T15:58:44.508Z,90.52
2022-12-06T16:01:23.600Z,90.60
2022-12-06T16:03:54.491Z,90.70
2022-12-06T16:06:25.959Z,90.54
2022-12-06T16:08:54.414Z,90.20
2022-12-06T16:11:27.646Z,90.08
2022-12-06T16:13:56.478Z,90.00
2022-12-06T16:16:24.758Z,90.07
2022-12-06T16:18:54.192Z,90.37
2022-12-06T16:21:30.741Z,90.73
2022-12-06T16:24:12.933Z,90.23
2022-12-06T16:26:44.788Z,90.38
2022-12-06T16:29:23.534Z,90.34
2022-12-06T16:31:56.091Z,90.29
2022-12-06T16:34:28.969Z,90.29
2022-12-06T16:37:02.737Z,90.26
2022-12-06T16:39:33.800Z,90.31
2022-12-06T16:42:06.454Z,90.51
2022-12-06T16:44:51.433Z,90.32
2022-12-06T16:49:49.052Z,90.24
2022-12-06T16:52:17.895Z,90.43
2022-12-06T16:54:46.337Z,90.44
2022-12-06T16:57:14.958Z,90.33
2022-12-06T16:59:43.608Z,90.33
2022-12-06T17:02:30.411Z,90.41
2022-12-06T17:05:02.286Z,90.51
2022-12-06T17:07:31.654Z,90.45
2022-12-06T17:10:00.093Z,90.19
2022-12-06T17:12:28.666Z,90.19
2022-12-06T17:14:59.021Z,90.16
2022-12-06T17:17:29.462Z,90.07
2022-12-06T17:19:57.905Z,90.10
2022-12-06T17:22:26.109Z,90.29
2022-12-06T17:24:54.445Z,90.35
2022-12-06T17:27:22.789Z,90.27
2022-12-06T17:29:51.167Z,89.81
2022-12-06T17:32:20.549Z,89.81
2022-12-06T17:34:49.201Z,89.67
2022-12-06T17:37:17.477Z,89.36
2022-12-06T17:39:45.951Z,89.48
2022-12-06T17:42:33.212Z,89.79
2022-12-06T17:45:05.916Z,89.46
2022-12-06T17:47:34.457Z,89.24
2022-12-06T17:50:03.894Z,89.48
2022-12-06T17:52:32.421Z,89.63
2022-12-06T17:55:00.995Z,89.39
2022-12-06T17:57:29.793Z,89.22
2022-12-06T17:59:58.152Z,89.03
2022-12-06T18:02:26.520Z,88.92
2022-12-06T18:04:56.244Z,89.32
2022-12-06T18:07:24.535Z,89.22
2022-12-06T18:09:53.203Z,89.31
2022-12-06T18:12:21.253Z,89.07
2022-12-06T18:14:49.855Z,88.99
2022-12-06T18:17:18.333Z,88.85
2022-12-06T18:19:47.273Z,88.98
2022-12-06T18:22:15.899Z,88.95
2022-12-06T18:24:44.840Z,89.17
2022-12-06T18:27:13.884Z,89.37
2022-12-06T18:29:42.205Z,89.20
2022-12-06T18:32:10.338Z,89.27
2022-12-06T18:34:38.975Z,89.35
2022-12-06T18:37:07.258Z,89.51
2022-12-06T18:39:35.431Z,89.40
2022-12-06T18:42:03.673Z,89.38
2022-12-06T18:44:31.858Z,89.21
2022-12-06T18:47:00.113Z,89.29
2022-12-06T18:49:28.908Z,89.21
2022-12-06T18:51:57.184Z,89.03
2022-12-06T18:54:26.397Z,89.37
2022-12-06T18:56:57.110Z,89.32
2022-12-06T18:59:27.825Z,89.49
2022-12-06T19:01:56.633Z,89.68
2022-12-06T19:04:24.880Z,89.69
2022-12-06T19:06:53.112Z,89.61
2022-12-06T19:09:22.583Z,89.41
2022-12-06T19:11:50.699Z,89.38
2022-12-06T19:14:19.607Z,89.37
2022-12-06T19:16:50.167Z,89.54
2022-12-06T19:19:23.154Z,89.41
2022-12-06T19:21:53.269Z,89.10
2022-12-06T19:24:23.949Z,89.34
2022-12-06T19:26:54.075Z,89.52
2022-12-06T19:29:22.451Z,89.39
2022-12-06T19:31:50.981Z,89.05
2022-12-06T19:34:25.775Z,89.04
2022-12-06T19:36:55.208Z,89.03
2022-12-06T19:39:24.177Z,89.11
2022-12-06T19:42:11.267Z,88.97
2022-12-06T19:44:39.956Z,88.80
2022-12-06T19:47:08.104Z,88.95
2022-12-06T19:49:36.389Z,88.91
2022-12-06T19:52:05.006Z,88.89
2022-12-06T19:54:34.067Z,88.94
2022-12-06T19:57:02.722Z,88.84
2022-12-06T19:59:34.399Z,88.90
2022-12-06T20:02:04.534Z,88.71
2022-12-06T20:04:37.790Z,88.73
2022-12-06T20:07:07.450Z,88.78
2022-12-06T20:09:36.060Z,88.80
2022-12-06T20:12:08.733Z,88.17
2022-12-06T20:14:44.332Z,88.17
2022-12-06T20:17:15.488Z,87.75
2022-12-06T20:19:46.214Z,88.01
2022-12-06T20:22:16.445Z,88.16
2022-12-06T20:24:44.999Z,88.29
2022-12-06T20:27:13.216Z,88.42
2022-12-06T20:29:41.461Z,88.32
2022-12-06T20:32:10.430Z,88.21
2022-12-06T20:34:39.207Z,88.45
2022-12-06T20:37:07.457Z,88.41
2022-12-06T20:39:36.544Z,88.32
2022-12-06T20:42:06.394Z,88.15
2022-12-06T20:44:34.983Z,87.97
2022-12-06T20:47:06.207Z,88.12
2022-12-06T20:49:34.597Z,88.21
2022-12-06T20:52:04.913Z,88.24
2022-12-06T20:54:33.051Z,88.05
2022-12-06T20:57:06.428Z,88.18
2022-12-06T20:59:35.553Z,88.05
2022-12-06T21:02:04.599Z,88.23
2022-12-06T21:04:32.833Z,88.28
2022-12-06T21:07:00.950Z,88.14
2022-12-06T21:09:29.592Z,88.22
2022-12-06T21:11:57.812Z,88.14
2022-12-06T21:14:26.135Z,88.09
2022-12-06T21:16:54.215Z,88.18
2022-12-06T21:19:23.011Z,87.96
2022-12-06T21:21:53.723Z,87.96
2022-12-06T21:24:22.136Z,87.96
2022-12-06T21:26:50.384Z,88.04
2022-12-06T21:29:30.436Z,88.10
2022-12-06T21:32:14.739Z,88.05
2022-12-06T21:34:46.613Z,88.07
2022-12-06T21:37:15.110Z,88.15
2022-12-06T21:39:46.687Z,88.35
2022-12-06T21:42:21.042Z,88.42
2022-12-06T21:44:49.107Z,88.08
2022-12-06T21:47:17.637Z,88.02
2022-12-06T21:49:45.773Z,87.97
2022-12-06T21:52:14.319Z,88.09
2022-12-06T21:54:42.601Z,87.94
2022-12-06T21:57:10.668Z,88.05
2022-12-06T21:59:38.908Z,88.24
2022-12-06T22:02:09.934Z,88.34
2022-12-06T22:04:38.032Z,88.20
2022-12-06T22:07:06.305Z,88.07
2022-12-06T22:09:34.795Z,88.05
2022-12-06T22:12:08.888Z,88.18
2022-12-06T22:14:37.242Z,88.34
2022-12-06T22:17:05.381Z,88.33
2022-12-06T22:19:33.525Z,88.30
2022-12-06T22:22:02.041Z,88.50
2022-12-06T22:24:30.149Z,88.33
2022-12-06T22:26:58.276Z,88.57
2022-12-06T22:29:26.753Z,88.52
2022-12-06T22:31:54.932Z,88.58
2022-12-06T22:34:23.352Z,88.46
2022-12-06T22:36:51.562Z,88.43
2022-12-06T22:39:19.703Z,88.43
2022-12-06T22:41:47.857Z,88.44
2022-12-06T22:44:16.476Z,88.54
2022-12-06T22:46:44.767Z,88.54
2022-12-06T22:49:17.892Z,88.41
2022-12-06T22:51:46.688Z,88.67
2022-12-06T22:54:15.243Z,88.77
2022-12-06T22:56:49.447Z,88.57
2022-12-06T22:59:18.209Z,88.59
2022-12-06T23:01:46.577Z,88.66
2022-12-06T23:04:17.231Z,88.60
2022-12-06T23:06:45.695Z,88.72
2022-12-06T23:09:16.892Z,88.69
2022-12-06T23:11:45.978Z,88.75
2022-12-06T23:14:15.269Z,88.65
2022-12-06T23:16:45.212Z,88.73
2022-12-06T23:19:13.365Z,88.63
2022-12-06T23:21:43.487Z,88.63
2022-12-06T23:24:13.398Z,88.76
2022-12-06T23:26:45.419Z,88.94
2022-12-06T23:29:15.438Z,88.90
2022-12-06T23:31:45.482Z,89.02
2022-12-06T23:34:21.075Z,89.02
2022-12-06T23:36:49.733Z,89.11
2022-12-06T23:39:17.885Z,89.03
2022-12-06T23:41:47.204Z,89.01
2022-12-06T23:44:15.704Z,89.19
2022-12-06T23:46:44.767Z,89.21
2022-12-06T23:49:21.123Z,89.40
2022-12-06T23:51:50.113Z,89.33
2022-12-06T23:54:18.807Z,89.21
2022-12-06T23:56:47.100Z,89.31
2022-12-06T23:59:16.409Z,89.24
